Latest Weather Observations for Bunbury

IDW60801

Issued at 8:35 pm WST Wednesday 23 April 2014 (issued every 30 minutes, with the page automatically refreshed every 10 minutes)

About weather observations | Map of weather stations | Latest weather observations for WA | Other Formats
Station Details ID: 009965 Name: BUNBURY Lat: -33.36 Lon: 115.64 Height: 5.2 m
Data from the previous 72 hours. | See also: Recent months at Bunbury
Date/Time
WST
Temp
°C
App
Temp
°C
Dew
Point
Rel
Hum
%
Delta-T
°C
Wind Press
QNH
hPa
Press
MSL
hPa
Rain
since 9 am
mm
Dir
 
Spd
km/h
Gust
km/h
Spd
kts
Gust
kts
23/08:30pm 16.9 14.8 9.8 63 3.7 SSE 11 17 6 9 1015.7 - 0.0
23/08:00pm 17.5 15.4 9.9 61 4.0 SSE 11 15 6 8 1015.7 1015.6 0.0
23/07:30pm 17.9 16.1 9.3 57 4.5 SSE 9 13 5 7 1015.9 - 0.0
23/07:00pm 18.6 16.8 9.4 55 4.8 SSE 9 13 5 7 1016.0 1015.9 0.0
23/06:30pm 18.5 16.6 9.0 54 5.0 SSE 9 11 5 6 1015.8 - 0.0
23/06:00pm 19.1 17.6 9.0 52 5.3 SE 7 11 4 6 1015.4 1015.3 0.0
23/05:30pm 21.3 19.0 8.9 45 6.6 SE 11 15 6 8 1015.4 - 0.0
23/05:00pm 22.6 20.3 9.0 42 7.3 SE 11 19 6 10 1015.2 1015.1 0.0
23/04:30pm 23.4 21.1 9.0 40 7.7 SE 11 17 6 9 1015.3 - 0.0
23/04:00pm 24.2 21.6 9.4 39 8.0 E 13 19 7 10 1015.3 1015.2 0.0
23/03:30pm 23.2 20.9 8.9 40 7.7 SSE 11 19 6 10 1015.3 - 0.0
23/03:00pm 23.3 20.9 8.6 39 7.8 SE 11 19 6 10 1015.4 1015.3 0.0
23/02:30pm 23.9 21.2 9.1 39 8.0 ESE 13 19 7 10 1015.7 - 0.0
23/02:00pm 23.6 21.0 9.2 40 7.8 ESE 13 22 7 12 1016.1 1016.0 0.0
23/01:30pm 23.0 20.4 9.4 42 7.3 E 13 20 7 11 1016.4 - 0.0
23/01:00pm 22.0 19.6 9.9 46 6.5 SSE 13 20 7 11 1016.9 1016.8 0.0
23/12:30pm 21.6 19.4 9.2 45 6.6 SE 11 19 6 10 1017.4 - 0.0
23/12:00pm 21.3 18.9 8.6 44 6.7 S 11 19 6 10 1017.8 1017.7 0.0
23/11:30am 21.6 19.0 9.5 46 6.5 SE 13 19 7 10 1018.1 - 0.0
23/11:00am 20.3 17.6 8.9 48 6.0 SSE 13 17 7 9 1018.4 1018.3 0.0
23/10:30am 20.0 18.0 10.1 53 5.3 S 11 17 6 9 1018.6 - 0.0
23/10:00am 19.7 19.3 11.2 58 4.6 E 4 7 2 4 1018.9 1018.8 0.0
23/09:30am 17.6 17.1 10.7 64 3.7 E 4 7 2 4 1019.3 - 0.0
23/09:00am 15.8 15.1 10.1 69 3.0 E 4 6 2 3 1019.3 1019.2 0.0
23/08:30am 14.2 14.1 9.6 74 2.4 CALM 0 2 0 1 1019.1 - 0.0
23/08:00am 11.7 10.9 9.8 88 1.0 ENE 4 7 2 4 1018.9 1018.8 0.0
23/07:30am 10.1 10.0 9.3 95 0.4 CALM 0 0 0 0 1018.8 - 0.0
23/07:00am 9.1 8.0 8.5 96 0.3 E 4 4 2 2 1018.5 1018.4 0.0
23/06:30am 8.5 6.9 7.9 96 0.3 E 6 7 3 4 1018.5 - 0.0
23/06:00am 8.0 7.4 7.4 96 0.3 CALM 0 0 0 0 1018.3 1018.2 0.0
23/05:30am 5.9 4.8 5.2 95 0.3 CALM 0 0 0 0 1018.2 - 0.0
23/05:00am 6.1 5.1 5.4 95 0.3 CALM 0 0 0 0 1018.2 1018.1 0.0
23/04:30am 6.1 5.1 5.4 95 0.3 CALM 0 4 0 2 1018.2 - 0.0
23/04:00am 7.1 6.3 6.4 95 0.3 CALM 0 0 0 0 1018.1 1018.0 0.0
23/03:30am 6.0 4.2 5.3 95 0.3 SSW 4 4 2 2 1018.2 - 0.0
23/03:00am 6.6 5.7 5.9 95 0.3 CALM 0 0 0 0 1018.3 1018.2 0.0
23/02:30am 7.7 7.0 7.0 95 0.3 CALM 0 0 0 0 1018.4 - 0.0
23/02:00am 6.6 5.6 5.7 94 0.4 ENE 0 0 0 0 1018.6 1018.5 0.0
23/01:30am 7.6 6.8 6.7 94 0.4 CALM 0 0 0 0 1018.9 - 0.0
23/01:00am 7.3 6.5 6.4 94 0.4 SW 0 0 0 0 1018.6 1018.5 0.0
23/12:30am 8.1 7.4 7.0 93 0.5 CALM 0 0 0 0 1018.6 - 0.0
23/12:00am 9.3 8.9 8.2 93 0.5 WSW 0 2 0 1 1018.6 1018.5 0.0
 
Date/Time
WST
Temp
°C
App
Temp
°C
Dew
Point
Rel
Hum
%
Delta-T
°C
Wind Press
QNH
hPa
Press
MSL
hPa
Rain
since 9 am
mm
Dir
 
Spd
km/h
Gust
km/h
Spd
kts
Gust
kts
22/11:30pm 9.8 9.1 8.7 93 0.5 ESE 2 6 1 3 1019.0 - 0.0
22/11:00pm 9.6 8.5 8.4 92 0.6 SE 4 6 2 3 1019.0 1018.9 0.0
22/10:30pm 10.1 9.7 8.4 89 0.8 CALM 0 2 0 1 1019.6 - 0.0
22/10:00pm 12.5 12.6 10.0 85 1.3 CALM 0 2 0 1 1019.4 1019.3 0.0
22/09:30pm 13.8 12.8 10.2 79 1.9 S 6 9 3 5 1019.3 - 0.0
22/09:00pm 14.0 13.0 10.2 78 2.0 S 6 7 3 4 1019.4 1019.3 0.0
22/08:30pm 14.1 12.9 9.5 74 2.4 S 6 9 3 5 1019.8 - 0.0
22/08:00pm 15.2 13.9 10.0 71 2.7 S 7 9 4 5 1019.6 1019.5 0.0
22/07:30pm 16.6 15.0 10.2 66 3.4 SSW 9 15 5 8 1019.4 - 0.0
22/07:00pm 17.5 14.4 10.4 63 3.8 SSW 17 24 9 13 1019.1 1019.0 0.0
22/06:30pm 17.9 16.3 10.3 61 4.1 SW 9 15 5 8 1018.6 - 0.0
22/06:00pm 17.8 16.5 9.9 60 4.2 WSW 7 15 4 8 1018.1 1018.0 0.0
22/05:30pm 18.9 16.8 9.7 55 4.9 WSW 11 15 6 8 1018.2 - 0.0
22/05:00pm 19.9 17.9 10.0 53 5.3 WSW 11 17 6 9 1018.3 1018.2 0.0
22/04:30pm 20.1 17.5 9.4 50 5.7 WSW 13 19 7 10 1018.1 - 0.0
22/04:00pm 20.9 18.4 9.8 49 6.0 WSW 13 20 7 11 1018.4 1018.3 0.0
22/03:30pm 20.5 17.6 9.7 50 5.8 WSW 15 22 8 12 1018.4 - 0.0
22/03:00pm 20.9 17.8 10.4 51 5.7 W 17 24 9 13 1018.7 1018.6 0.0
22/02:30pm 21.5 19.3 9.4 46 6.5 WSW 11 17 6 9 1018.9 - 0.0
22/02:00pm 20.7 18.3 9.9 50 5.8 W 13 17 7 9 1019.0 1018.9 0.0
22/01:30pm 21.4 19.6 9.3 46 6.5 W 9 17 5 9 1019.4 - 0.0
22/01:00pm 21.7 19.2 9.6 46 6.5 W 13 19 7 10 1019.8 1019.7 0.0
22/12:30pm 21.9 19.2 9.1 44 6.8 W 13 17 7 9 1020.2 - 0.0
22/12:00pm 21.5 19.8 9.7 47 6.3 W 9 15 5 8 1020.6 1020.5 0.0
22/11:30am 21.2 20.1 10.1 49 6.0 W 6 9 3 5 1021.0 - 0.0
22/11:00am 20.1 19.1 8.8 48 5.9 SSW 4 7 2 4 1021.4 1021.3 0.0
22/10:30am 19.5 18.6 9.1 51 5.5 W 4 6 2 3 1021.8 - 0.0
22/10:00am 18.5 17.5 9.0 54 4.9 SE 4 7 2 4 1022.1 1022.0 0.0
22/09:30am 17.2 15.9 9.1 59 4.2 ENE 6 9 3 5 1022.2 - 0.0
22/09:00am 16.0 14.5 9.2 64 3.5 E 7 9 4 5 1022.2 1022.1 0.0
22/08:30am 13.8 12.4 9.0 73 2.4 SE 6 7 3 4 1022.0 - 0.0
22/08:00am 12.2 10.8 8.9 80 1.6 E 6 9 3 5 1021.9 1021.8 0.0
22/07:30am 10.0 8.2 8.1 88 0.9 ESE 7 9 4 5 1021.7 - 0.0
22/07:00am 7.9 6.0 6.8 93 0.5 ESE 6 7 3 4 1021.5 1021.4 0.0
22/06:30am 8.4 7.4 7.5 94 0.4 SE 2 7 1 4 1021.3 - 0.0
22/06:00am 8.1 7.0 7.0 93 0.5 SSW 2 4 1 2 1021.2 1021.1 0.0
22/05:30am 8.7 8.2 7.8 94 0.4 CALM 0 0 0 0 1021.3 - 0.0
22/05:00am 8.2 7.6 7.3 94 0.4 CALM 0 2 0 1 1021.2 1021.1 0.0
22/04:30am 7.8 6.3 6.9 94 0.4 S 4 6 2 3 1021.2 - 0.0
22/04:00am 8.0 6.2 7.2 95 0.4 SSW 6 7 3 4 1021.1 1021.0 0.0
22/03:30am 8.0 6.2 7.1 94 0.4 SSW 6 7 3 4 1021.1 - 0.0
22/03:00am 7.5 6.7 6.6 94 0.4 CALM 0 0 0 0 1021.2 1021.1 0.0
22/02:30am 7.1 6.2 6.2 94 0.4 CALM 0 0 0 0 1021.2 - 0.0
22/02:00am 7.8 7.0 6.7 93 0.5 CALM 0 0 0 0 1021.1 1021.0 0.0
22/01:30am 7.9 7.1 6.5 91 0.6 CALM 0 0 0 0 1021.3 - 0.0
22/01:00am 8.8 7.8 7.3 90 0.7 SSW 2 4 1 2 1021.3 1021.2 0.0
22/12:30am 9.8 9.4 8.1 89 0.8 CALM 0 0 0 0 1021.3 - 0.0
22/12:00am 8.9 8.1 6.7 86 1.0 CALM 0 2 0 1 1021.4 1021.3 0.0
 
Date/Time
WST
Temp
°C
App
Temp
°C
Dew
Point
Rel
Hum
%
Delta-T
°C
Wind Press
QNH
hPa
Press
MSL
hPa
Rain
since 9 am
mm
Dir
 
Spd
km/h
Gust
km/h
Spd
kts
Gust
kts
21/11:30pm 10.4 8.9 6.9 79 1.7 S 4 7 2 4 1021.4 - 0.0
21/11:00pm 11.2 9.5 7.5 78 1.8 S 6 7 3 4 1021.6 1021.5 0.0
21/10:30pm 11.6 9.9 7.5 76 2.0 S 6 7 3 4 1021.8 - 0.0
21/10:00pm 12.3 10.7 7.8 74 2.2 S 6 7 3 4 1022.1 1022.0 0.0
21/09:30pm 12.9 11.3 7.8 71 2.5 S 6 7 3 4 1022.2 - 0.0
21/09:00pm 13.4 11.8 7.8 69 2.7 S 6 9 3 5 1022.1 1022.0 0.0
21/08:30pm 13.9 12.1 7.9 67 3.0 SSW 7 9 4 5 1021.9 - 0.0
21/08:00pm 14.9 12.7 7.9 63 3.5 S 9 13 5 7 1021.6 1021.5 0.0
21/07:30pm 16.5 14.0 8.2 58 4.2 S 11 19 6 10 1021.3 - 0.0
21/07:00pm 16.5 14.1 8.7 60 4.0 S 11 17 6 9 1020.9 1020.8 0.0
21/06:30pm 16.9 15.4 9.3 61 3.9 S 7 11 4 6 1020.4 - 0.0
21/06:00pm 18.1 16.7 9.5 57 4.5 SW 7 13 4 7 1020.0 1019.9 0.0
21/05:30pm 18.8 16.7 9.6 55 4.9 WSW 11 15 6 8 1019.7 - 0.0
21/05:00pm 19.6 17.0 9.5 52 5.3 WSW 13 20 7 11 1019.6 1019.5 0.0
21/04:30pm 20.4 17.6 9.9 51 5.6 W 15 24 8 13 1019.7 - 0.0
21/04:00pm 20.6 17.9 10.4 52 5.5 W 15 24 8 13 1019.6 1019.5 0.0
21/03:30pm 20.5 18.0 11.2 55 5.1 WSW 15 22 8 12 1019.5 - 0.0
21/03:00pm 21.4 18.9 10.9 51 5.8 WSW 15 20 8 11 1019.5 1019.4 0.0
21/02:30pm 21.1 18.1 10.6 51 5.7 W 17 26 9 14 1019.3 - 0.0
21/02:00pm 21.6 19.0 10.7 50 6.0 W 15 20 8 11 1019.2 1019.1 0.0
21/01:30pm 20.0 17.5 11.0 56 4.9 W 15 22 8 12 1019.3 - 0.0
21/01:00pm 20.2 17.2 6.2 40 7.0 SW 11 17 6 9 1019.4 1019.3 0.0
21/12:30pm 21.1 18.7 7.0 40 7.2 SE 9 19 5 10 1019.6 - 0.0
21/12:00pm 19.7 17.1 7.8 46 6.1 S 11 20 6 11 1020.1 1020.0 0.0
21/11:30am 20.8 18.5 9.1 47 6.2 SE 11 20 6 11 1020.3 - 0.0
21/11:00am 18.9 16.5 8.6 51 5.3 S 11 19 6 10 1020.5 1020.4 0.0
21/10:30am 18.3 15.9 8.6 53 5.0 SSE 11 20 6 11 1020.6 - 0.0
21/10:00am 18.8 17.6 10.4 58 4.5 SE 7 13 4 7 1020.6 1020.5 0.0
21/09:30am 18.0 17.6 11.1 64 3.7 SE 4 7 2 4 1020.5 - 0.0
21/09:00am 15.3 14.8 10.7 74 2.4 ESE 4 6 2 3 1020.5 1020.4 0.0
21/08:30am 12.6 13.2 11.8 95 0.4 CALM 0 4 0 2 1020.3 - 0.0
21/08:00am 10.6 9.9 10.0 96 0.3 E 4 6 2 3 1019.9 1019.8 0.0
21/07:30am 7.9 6.9 7.3 96 0.3 ESE 2 4 1 2 1019.7 - 0.0
21/07:00am 6.9 5.3 6.2 95 0.3 E 4 6 2 3 1019.3 1019.2 0.0
21/06:30am 5.8 4.7 5.1 95 0.3 CALM 0 0 0 0 1019.2 - 0.0
21/06:00am 6.5 5.5 5.8 95 0.3 CALM 0 0 0 0 1019.0 1018.9 0.0
21/05:30am 6.4 5.4 5.7 95 0.3 CALM 0 0 0 0 1018.8 - 0.0
21/05:00am 8.4 6.7 7.6 95 0.4 S 6 9 3 5 1018.6 1018.5 0.0
21/04:30am 6.9 5.3 6.2 95 0.3 S 4 7 2 4 1018.3 - 0.0
21/04:00am 7.2 6.4 6.5 95 0.3 CALM 0 0 0 0 1018.2 1018.1 0.0
21/03:30am 6.5 5.2 5.8 95 0.3 S 2 4 1 2 1017.8 - 0.0
21/03:00am 7.3 6.1 6.6 95 0.3 S 2 4 1 2 1017.8 1017.7 0.0
21/02:30am 7.2 6.0 6.3 94 0.4 S 2 4 1 2 1017.7 - 0.0
21/02:00am 8.1 6.7 7.2 94 0.4 S 4 6 2 3 1017.3 1017.2 0.0
21/01:30am 8.5 7.1 7.3 92 0.6 S 4 6 2 3 1017.3 - 0.0
21/01:00am 10.1 8.7 8.7 91 0.7 S 6 7 3 4 1017.2 1017.1 0.0
21/12:30am 10.9 9.6 9.2 89 0.8 SSW 6 7 3 4 1017.1 - 0.0
21/12:00am 11.0 9.7 9.1 88 0.9 SSW 6 7 3 4 1017.0 1016.9 0.0
 
Date/Time
WST
Temp
°C
App
Temp
°C
Dew
Point
Rel
Hum
%
Delta-T
°C
Wind Press
QNH
hPa
Press
MSL
hPa
Rain
since 9 am
mm
Dir
 
Spd
km/h
Gust
km/h
Spd
kts
Gust
kts
20/11:30pm 11.9 10.7 9.6 86 1.2 S 6 7 3 4 1016.9 - 0.0
20/11:00pm 12.3 11.1 9.7 84 1.3 S 6 7 3 4 1016.9 1016.8 0.0
20/10:30pm 12.7 11.3 9.7 82 1.5 S 7 7 4 4 1016.9 - 0.0
20/10:00pm 13.5 12.5 10.3 81 1.7 S 6 6 3 3 1016.8 1016.7 0.0
20/09:30pm 13.9 12.8 10.1 78 2.0 S 6 7 3 4 1016.7 - 0.0
20/09:00pm 14.5 13.3 10.3 76 2.2 S 7 9 4 5 1016.6 1016.5 0.0

Other Formats:

Comma delimited format used in spreadsheet applications
http://www.bom.gov.au/fwo/IDW60801/IDW60801.94604.axf

JavaScript Object Notation format (JSON) in row-major order
http://www.bom.gov.au/fwo/IDW60801/IDW60801.94604.json